sensor_id;sensor_type;location;lat;lon;timestamp;P1;durP1;ratioP1;P2;durP2;ratioP2
21260;SDS011;10788;47.930;9.766;2022-08-05T00:01:10;0.20;;;0.20;;
21260;SDS011;10788;47.930;9.766;2022-08-05T00:03:39;0.20;;;0.20;;
21260;SDS011;10788;47.930;9.766;2022-08-05T00:06:06;0.10;;;0.10;;
21260;SDS011;10788;47.930;9.766;2022-08-05T00:08:32;0.20;;;0.20;;
21260;SDS011;10788;47.930;9.766;2022-08-05T00:10:58;0.10;;;0.10;;
21260;SDS011;10788;47.930;9.766;2022-08-05T00:13:25;0.17;;;0.17;;
21260;SDS011;10788;47.930;9.766;2022-08-05T00:15:51;0.20;;;0.20;;
21260;SDS011;10788;47.930;9.766;2022-08-05T00:18:17;0.10;;;0.10;;
21260;SDS011;10788;47.930;9.766;2022-08-05T00:20:42;0.20;;;0.20;;
21260;SDS011;10788;47.930;9.766;2022-08-05T00:23:08;0.20;;;0.20;;
21260;SDS011;10788;47.930;9.766;2022-08-05T00:25:34;0.20;;;0.20;;
21260;SDS011;10788;47.930;9.766;2022-08-05T00:27:59;0.20;;;0.20;;
21260;SDS011;10788;47.930;9.766;2022-08-05T00:30:25;0.20;;;0.20;;
21260;SDS011;10788;47.930;9.766;2022-08-05T00:32:50;0.20;;;0.20;;
21260;SDS011;10788;47.930;9.766;2022-08-05T00:35:16;0.10;;;0.10;;
21260;SDS011;10788;47.930;9.766;2022-08-05T00:37:42;0.20;;;0.20;;
21260;SDS011;10788;47.930;9.766;2022-08-05T00:40:07;0.20;;;0.20;;
21260;SDS011;10788;47.930;9.766;2022-08-05T00:42:34;0.10;;;0.10;;
21260;SDS011;10788;47.930;9.766;2022-08-05T00:45:02;0.10;;;0.10;;
21260;SDS011;10788;47.930;9.766;2022-08-05T00:47:29;0.10;;;0.10;;
21260;SDS011;10788;47.930;9.766;2022-08-05T00:49:55;0.20;;;0.20;;
21260;SDS011;10788;47.930;9.766;2022-08-05T00:52:20;0.10;;;0.10;;
21260;SDS011;10788;47.930;9.766;2022-08-05T00:54:46;0.10;;;0.10;;
21260;SDS011;10788;47.930;9.766;2022-08-05T00:57:12;0.20;;;0.20;;
21260;SDS011;10788;47.930;9.766;2022-08-05T00:59:38;0.20;;;0.20;;
21260;SDS011;10788;47.930;9.766;2022-08-05T01:02:04;0.20;;;0.20;;
21260;SDS011;10788;47.930;9.766;2022-08-05T01:04:30;0.10;;;0.10;;
21260;SDS011;10788;47.930;9.766;2022-08-05T01:06:56;0.20;;;0.20;;
21260;SDS011;10788;47.930;9.766;2022-08-05T01:09:21;0.20;;;0.20;;
21260;SDS011;10788;47.930;9.766;2022-08-05T01:11:47;0.10;;;0.10;;
21260;SDS011;10788;47.930;9.766;2022-08-05T01:19:34;0.20;;;0.20;;
21260;SDS011;10788;47.930;9.766;2022-08-05T01:22:10;0.10;;;0.10;;
21260;SDS011;10788;47.930;9.766;2022-08-05T01:30:30;0.10;;;0.10;;
21260;SDS011;10788;47.930;9.766;2022-08-05T01:33:02;0.10;;;0.10;;
21260;SDS011;10788;47.930;9.766;2022-08-05T01:35:31;0.10;;;0.10;;
21260;SDS011;10788;47.930;9.766;2022-08-05T01:37:59;0.10;;;0.10;;
21260;SDS011;10788;47.930;9.766;2022-08-05T01:40:28;0.20;;;0.20;;
21260;SDS011;10788;47.930;9.766;2022-08-05T01:42:55;0.20;;;0.20;;
21260;SDS011;10788;47.930;9.766;2022-08-05T01:45:23;0.20;;;0.20;;
21260;SDS011;10788;47.930;9.766;2022-08-05T01:47:50;0.10;;;0.10;;
21260;SDS011;10788;47.930;9.766;2022-08-05T01:50:26;0.10;;;0.10;;
21260;SDS011;10788;47.930;9.766;2022-08-05T01:52:55;0.20;;;0.20;;
21260;SDS011;10788;47.930;9.766;2022-08-05T01:55:28;0.10;;;0.10;;
21260;SDS011;10788;47.930;9.766;2022-08-05T01:57:57;0.10;;;0.10;;
21260;SDS011;10788;47.930;9.766;2022-08-05T02:00:24;0.10;;;0.10;;
21260;SDS011;10788;47.930;9.766;2022-08-05T02:02:57;0.10;;;0.10;;
21260;SDS011;10788;47.930;9.766;2022-08-05T02:05:28;0.10;;;0.10;;
21260;SDS011;10788;47.930;9.766;2022-08-05T02:07:58;0.10;;;0.10;;
21260;SDS011;10788;47.930;9.766;2022-08-05T02:10:25;0.10;;;0.10;;
21260;SDS011;10788;47.930;9.766;2022-08-05T02:13:00;0.10;;;0.10;;
21260;SDS011;10788;47.930;9.766;2022-08-05T02:15:33;0.10;;;0.10;;
21260;SDS011;10788;47.930;9.766;2022-08-05T02:18:02;0.10;;;0.10;;
21260;SDS011;10788;47.930;9.766;2022-08-05T02:20:34;0.10;;;0.10;;
21260;SDS011;10788;47.930;9.766;2022-08-05T02:23:08;0.17;;;0.17;;
21260;SDS011;10788;47.930;9.766;2022-08-05T02:25:36;0.13;;;0.13;;
21260;SDS011;10788;47.930;9.766;2022-08-05T02:28:05;0.10;;;0.10;;
21260;SDS011;10788;47.930;9.766;2022-08-05T02:30:43;0.10;;;0.10;;
21260;SDS011;10788;47.930;9.766;2022-08-05T02:33:14;0.10;;;0.10;;
21260;SDS011;10788;47.930;9.766;2022-08-05T02:35:42;0.10;;;0.10;;
21260;SDS011;10788;47.930;9.766;2022-08-05T02:38:09;0.10;;;0.10;;
21260;SDS011;10788;47.930;9.766;2022-08-05T02:40:37;0.10;;;0.10;;
21260;SDS011;10788;47.930;9.766;2022-08-05T02:43:06;0.10;;;0.10;;
21260;SDS011;10788;47.930;9.766;2022-08-05T02:45:33;0.10;;;0.10;;
21260;SDS011;10788;47.930;9.766;2022-08-05T02:48:00;0.10;;;0.10;;
21260;SDS011;10788;47.930;9.766;2022-08-05T02:50:27;0.10;;;0.10;;
21260;SDS011;10788;47.930;9.766;2022-08-05T02:52:53;0.10;;;0.10;;
21260;SDS011;10788;47.930;9.766;2022-08-05T02:55:20;0.10;;;0.10;;
21260;SDS011;10788;47.930;9.766;2022-08-05T02:57:46;0.10;;;0.10;;
21260;SDS011;10788;47.930;9.766;2022-08-05T03:00:15;0.20;;;0.20;;
21260;SDS011;10788;47.930;9.766;2022-08-05T03:02:42;0.20;;;0.20;;
21260;SDS011;10788;47.930;9.766;2022-08-05T03:05:10;0.10;;;0.10;;
21260;SDS011;10788;47.930;9.766;2022-08-05T03:07:38;0.13;;;0.13;;
21260;SDS011;10788;47.930;9.766;2022-08-05T03:10:05;0.10;;;0.10;;
21260;SDS011;10788;47.930;9.766;2022-08-05T03:12:35;0.10;;;0.10;;
21260;SDS011;10788;47.930;9.766;2022-08-05T03:15:03;0.10;;;0.10;;
21260;SDS011;10788;47.930;9.766;2022-08-05T03:17:30;0.10;;;0.10;;
21260;SDS011;10788;47.930;9.766;2022-08-05T03:19:56;0.10;;;0.10;;
21260;SDS011;10788;47.930;9.766;2022-08-05T03:22:23;0.10;;;0.10;;
21260;SDS011;10788;47.930;9.766;2022-08-05T03:24:49;0.10;;;0.10;;
21260;SDS011;10788;47.930;9.766;2022-08-05T03:27:16;0.10;;;0.10;;
21260;SDS011;10788;47.930;9.766;2022-08-05T03:29:42;0.10;;;0.10;;
21260;SDS011;10788;47.930;9.766;2022-08-05T03:32:08;0.20;;;0.20;;
21260;SDS011;10788;47.930;9.766;2022-08-05T03:34:34;0.10;;;0.10;;
21260;SDS011;10788;47.930;9.766;2022-08-05T03:37:01;0.20;;;0.20;;
21260;SDS011;10788;47.930;9.766;2022-08-05T03:39:28;0.10;;;0.10;;
21260;SDS011;10788;47.930;9.766;2022-08-05T03:41:54;0.10;;;0.10;;
21260;SDS011;10788;47.930;9.766;2022-08-05T03:44:20;0.10;;;0.10;;
21260;SDS011;10788;47.930;9.766;2022-08-05T03:46:46;0.20;;;0.20;;
21260;SDS011;10788;47.930;9.766;2022-08-05T03:49:11;0.10;;;0.10;;
21260;SDS011;10788;47.930;9.766;2022-08-05T03:51:38;0.20;;;0.20;;
21260;SDS011;10788;47.930;9.766;2022-08-05T03:54:09;0.13;;;0.13;;
21260;SDS011;10788;47.930;9.766;2022-08-05T03:56:57;0.10;;;0.10;;
21260;SDS011;10788;47.930;9.766;2022-08-05T03:59:27;0.10;;;0.10;;
21260;SDS011;10788;47.930;9.766;2022-08-05T04:01:57;0.10;;;0.10;;
21260;SDS011;10788;47.930;9.766;2022-08-05T04:04:25;0.20;;;0.20;;
21260;SDS011;10788;47.930;9.766;2022-08-05T04:06:52;0.17;;;0.17;;
21260;SDS011;10788;47.930;9.766;2022-08-05T04:09:19;0.20;;;0.20;;
21260;SDS011;10788;47.930;9.766;2022-08-05T04:11:45;0.20;;;0.20;;
21260;SDS011;10788;47.930;9.766;2022-08-05T04:14:11;0.23;;;0.23;;
21260;SDS011;10788;47.930;9.766;2022-08-05T04:16:36;0.10;;;0.10;;
21260;SDS011;10788;47.930;9.766;2022-08-05T04:19:02;0.20;;;0.20;;
21260;SDS011;10788;47.930;9.766;2022-08-05T04:21:28;0.10;;;0.10;;
21260;SDS011;10788;47.930;9.766;2022-08-05T04:23:55;0.20;;;0.20;;
21260;SDS011;10788;47.930;9.766;2022-08-05T04:26:22;0.10;;;0.10;;
21260;SDS011;10788;47.930;9.766;2022-08-05T04:28:48;0.10;;;0.10;;
21260;SDS011;10788;47.930;9.766;2022-08-05T04:31:14;0.20;;;0.20;;
21260;SDS011;10788;47.930;9.766;2022-08-05T04:33:39;0.10;;;0.10;;
21260;SDS011;10788;47.930;9.766;2022-08-05T04:36:05;0.20;;;0.20;;
21260;SDS011;10788;47.930;9.766;2022-08-05T04:38:32;0.20;;;0.20;;
21260;SDS011;10788;47.930;9.766;2022-08-05T04:40:58;0.10;;;0.10;;
21260;SDS011;10788;47.930;9.766;2022-08-05T04:43:23;0.10;;;0.10;;
21260;SDS011;10788;47.930;9.766;2022-08-05T04:45:49;0.20;;;0.20;;
21260;SDS011;10788;47.930;9.766;2022-08-05T04:48:14;0.10;;;0.10;;
21260;SDS011;10788;47.930;9.766;2022-08-05T04:50:45;0.10;;;0.10;;
21260;SDS011;10788;47.930;9.766;2022-08-05T04:53:12;0.10;;;0.10;;
21260;SDS011;10788;47.930;9.766;2022-08-05T04:55:40;0.20;;;0.20;;
21260;SDS011;10788;47.930;9.766;2022-08-05T04:58:07;0.20;;;0.20;;
21260;SDS011;10788;47.930;9.766;2022-08-05T05:00:35;0.20;;;0.20;;
21260;SDS011;10788;47.930;9.766;2022-08-05T05:03:02;0.20;;;0.20;;
21260;SDS011;10788;47.930;9.766;2022-08-05T05:05:28;0.10;;;0.10;;
21260;SDS011;10788;47.930;9.766;2022-08-05T05:07:55;0.10;;;0.10;;
21260;SDS011;10788;47.930;9.766;2022-08-05T05:10:25;0.10;;;0.10;;
21260;SDS011;10788;47.930;9.766;2022-08-05T05:12:50;0.10;;;0.10;;
21260;SDS011;10788;47.930;9.766;2022-08-05T05:15:16;0.10;;;0.10;;
21260;SDS011;10788;47.930;9.766;2022-08-05T05:17:42;0.10;;;0.10;;
21260;SDS011;10788;47.930;9.766;2022-08-05T05:20:08;0.10;;;0.10;;
21260;SDS011;10788;47.930;9.766;2022-08-05T05:22:35;0.10;;;0.10;;
21260;SDS011;10788;47.930;9.766;2022-08-05T05:25:02;0.10;;;0.10;;
21260;SDS011;10788;47.930;9.766;2022-08-05T05:27:29;0.10;;;0.10;;
21260;SDS011;10788;47.930;9.766;2022-08-05T05:29:56;0.10;;;0.10;;
21260;SDS011;10788;47.930;9.766;2022-08-05T05:32:22;0.10;;;0.10;;
21260;SDS011;10788;47.930;9.766;2022-08-05T05:34:48;0.10;;;0.10;;
21260;SDS011;10788;47.930;9.766;2022-08-05T05:37:13;0.20;;;0.20;;
21260;SDS011;10788;47.930;9.766;2022-08-05T05:39:40;0.20;;;0.20;;
21260;SDS011;10788;47.930;9.766;2022-08-05T05:42:05;0.10;;;0.10;;
21260;SDS011;10788;47.930;9.766;2022-08-05T05:44:31;0.10;;;0.10;;
21260;SDS011;10788;47.930;9.766;2022-08-05T05:46:58;0.10;;;0.10;;
21260;SDS011;10788;47.930;9.766;2022-08-05T05:49:23;0.20;;;0.20;;
21260;SDS011;10788;47.930;9.766;2022-08-05T05:51:50;0.20;;;0.20;;
21260;SDS011;10788;47.930;9.766;2022-08-05T05:54:15;0.20;;;0.20;;
21260;SDS011;10788;47.930;9.766;2022-08-05T05:56:41;0.10;;;0.10;;
21260;SDS011;10788;47.930;9.766;2022-08-05T05:59:07;0.10;;;0.10;;
21260;SDS011;10788;47.930;9.766;2022-08-05T06:01:33;0.10;;;0.10;;
21260;SDS011;10788;47.930;9.766;2022-08-05T06:04:00;0.20;;;0.20;;
21260;SDS011;10788;47.930;9.766;2022-08-05T06:06:25;0.17;;;0.17;;
21260;SDS011;10788;47.930;9.766;2022-08-05T06:08:51;0.10;;;0.10;;
21260;SDS011;10788;47.930;9.766;2022-08-05T06:11:17;0.10;;;0.10;;
21260;SDS011;10788;47.930;9.766;2022-08-05T06:13:42;0.10;;;0.10;;
21260;SDS011;10788;47.930;9.766;2022-08-05T06:16:08;0.10;;;0.10;;
21260;SDS011;10788;47.930;9.766;2022-08-05T06:18:33;0.13;;;0.13;;
21260;SDS011;10788;47.930;9.766;2022-08-05T06:21:01;0.20;;;0.20;;
21260;SDS011;10788;47.930;9.766;2022-08-05T06:23:27;0.20;;;0.20;;
21260;SDS011;10788;47.930;9.766;2022-08-05T06:25:53;0.20;;;0.20;;
21260;SDS011;10788;47.930;9.766;2022-08-05T06:28:19;0.20;;;0.20;;
21260;SDS011;10788;47.930;9.766;2022-08-05T06:30:45;0.17;;;0.17;;
21260;SDS011;10788;47.930;9.766;2022-08-05T06:33:10;0.20;;;0.20;;
21260;SDS011;10788;47.930;9.766;2022-08-05T06:35:36;0.20;;;0.20;;
21260;SDS011;10788;47.930;9.766;2022-08-05T06:38:02;0.20;;;0.20;;
21260;SDS011;10788;47.930;9.766;2022-08-05T06:40:28;0.20;;;0.20;;
21260;SDS011;10788;47.930;9.766;2022-08-05T06:42:54;0.20;;;0.20;;
21260;SDS011;10788;47.930;9.766;2022-08-05T06:45:20;0.10;;;0.10;;
21260;SDS011;10788;47.930;9.766;2022-08-05T06:47:46;0.20;;;0.20;;
21260;SDS011;10788;47.930;9.766;2022-08-05T06:50:11;0.20;;;0.20;;
21260;SDS011;10788;47.930;9.766;2022-08-05T06:52:37;0.10;;;0.10;;
21260;SDS011;10788;47.930;9.766;2022-08-05T06:55:02;0.20;;;0.20;;
21260;SDS011;10788;47.930;9.766;2022-08-05T06:57:29;0.10;;;0.10;;
21260;SDS011;10788;47.930;9.766;2022-08-05T06:59:54;0.20;;;0.20;;
21260;SDS011;10788;47.930;9.766;2022-08-05T07:02:20;0.20;;;0.20;;
21260;SDS011;10788;47.930;9.766;2022-08-05T07:04:45;0.20;;;0.20;;
21260;SDS011;10788;47.930;9.766;2022-08-05T07:07:11;0.10;;;0.10;;
21260;SDS011;10788;47.930;9.766;2022-08-05T07:09:37;0.10;;;0.10;;
21260;SDS011;10788;47.930;9.766;2022-08-05T07:12:02;0.20;;;0.20;;
21260;SDS011;10788;47.930;9.766;2022-08-05T07:14:28;0.20;;;0.20;;
21260;SDS011;10788;47.930;9.766;2022-08-05T07:17:12;0.17;;;0.17;;
21260;SDS011;10788;47.930;9.766;2022-08-05T07:19:38;0.10;;;0.10;;
21260;SDS011;10788;47.930;9.766;2022-08-05T07:22:04;0.10;;;0.10;;
21260;SDS011;10788;47.930;9.766;2022-08-05T07:24:29;0.10;;;0.10;;
21260;SDS011;10788;47.930;9.766;2022-08-05T07:26:55;0.10;;;0.10;;
21260;SDS011;10788;47.930;9.766;2022-08-05T07:29:21;0.10;;;0.10;;
21260;SDS011;10788;47.930;9.766;2022-08-05T07:31:46;0.10;;;0.10;;
21260;SDS011;10788;47.930;9.766;2022-08-05T07:34:12;0.20;;;0.20;;
21260;SDS011;10788;47.930;9.766;2022-08-05T07:36:38;0.20;;;0.20;;
21260;SDS011;10788;47.930;9.766;2022-08-05T07:39:04;0.20;;;0.20;;
21260;SDS011;10788;47.930;9.766;2022-08-05T07:41:31;0.20;;;0.20;;
21260;SDS011;10788;47.930;9.766;2022-08-05T07:43:57;0.20;;;0.20;;
21260;SDS011;10788;47.930;9.766;2022-08-05T07:46:28;0.20;;;0.20;;
21260;SDS011;10788;47.930;9.766;2022-08-05T07:48:55;0.20;;;0.20;;
21260;SDS011;10788;47.930;9.766;2022-08-05T07:51:22;0.20;;;0.20;;
21260;SDS011;10788;47.930;9.766;2022-08-05T07:53:48;0.10;;;0.10;;
21260;SDS011;10788;47.930;9.766;2022-08-05T07:56:13;0.20;;;0.20;;
21260;SDS011;10788;47.930;9.766;2022-08-05T07:58:39;0.20;;;0.20;;
21260;SDS011;10788;47.930;9.766;2022-08-05T08:01:05;0.10;;;0.10;;
21260;SDS011;10788;47.930;9.766;2022-08-05T08:03:30;0.20;;;0.20;;
21260;SDS011;10788;47.930;9.766;2022-08-05T08:05:56;0.10;;;0.10;;
21260;SDS011;10788;47.930;9.766;2022-08-05T08:08:22;0.20;;;0.20;;
21260;SDS011;10788;47.930;9.766;2022-08-05T08:10:47;0.20;;;0.20;;
21260;SDS011;10788;47.930;9.766;2022-08-05T08:13:13;0.20;;;0.20;;
21260;SDS011;10788;47.930;9.766;2022-08-05T08:15:39;0.20;;;0.20;;
21260;SDS011;10788;47.930;9.766;2022-08-05T08:18:05;0.20;;;0.20;;
21260;SDS011;10788;47.930;9.766;2022-08-05T08:20:30;0.30;;;0.30;;
21260;SDS011;10788;47.930;9.766;2022-08-05T08:22:57;0.30;;;0.30;;
21260;SDS011;10788;47.930;9.766;2022-08-05T08:25:23;0.30;;;0.30;;
21260;SDS011;10788;47.930;9.766;2022-08-05T08:27:50;0.30;;;0.30;;
21260;SDS011;10788;47.930;9.766;2022-08-05T08:30:15;0.30;;;0.30;;
21260;SDS011;10788;47.930;9.766;2022-08-05T08:32:42;0.20;;;0.20;;
21260;SDS011;10788;47.930;9.766;2022-08-05T08:35:08;0.17;;;0.17;;
21260;SDS011;10788;47.930;9.766;2022-08-05T08:37:34;0.20;;;0.20;;
21260;SDS011;10788;47.930;9.766;2022-08-05T08:39:59;0.33;;;0.33;;
21260;SDS011;10788;47.930;9.766;2022-08-05T08:42:25;0.30;;;0.30;;
21260;SDS011;10788;47.930;9.766;2022-08-05T08:44:53;0.20;;;0.20;;
21260;SDS011;10788;47.930;9.766;2022-08-05T08:47:21;0.30;;;0.30;;
21260;SDS011;10788;47.930;9.766;2022-08-05T08:49:54;0.20;;;0.20;;
21260;SDS011;10788;47.930;9.766;2022-08-05T08:52:23;0.20;;;0.20;;
21260;SDS011;10788;47.930;9.766;2022-08-05T08:54:59;0.30;;;0.30;;
21260;SDS011;10788;47.930;9.766;2022-08-05T08:57:27;0.40;;;0.40;;
21260;SDS011;10788;47.930;9.766;2022-08-05T08:59:53;0.30;;;0.30;;
21260;SDS011;10788;47.930;9.766;2022-08-05T09:02:20;0.30;;;0.30;;
21260;SDS011;10788;47.930;9.766;2022-08-05T09:04:46;0.10;;;0.10;;
21260;SDS011;10788;47.930;9.766;2022-08-05T09:07:12;0.30;;;0.30;;
21260;SDS011;10788;47.930;9.766;2022-08-05T09:09:38;0.30;;;0.30;;
21260;SDS011;10788;47.930;9.766;2022-08-05T09:12:04;0.30;;;0.30;;
21260;SDS011;10788;47.930;9.766;2022-08-05T09:14:32;0.40;;;0.40;;
21260;SDS011;10788;47.930;9.766;2022-08-05T09:16:59;0.40;;;0.40;;
21260;SDS011;10788;47.930;9.766;2022-08-05T09:19:25;0.47;;;0.47;;
21260;SDS011;10788;47.930;9.766;2022-08-05T09:21:52;0.50;;;0.50;;
21260;SDS011;10788;47.930;9.766;2022-08-05T09:24:18;0.40;;;0.40;;
21260;SDS011;10788;47.930;9.766;2022-08-05T09:26:51;0.40;;;0.40;;
21260;SDS011;10788;47.930;9.766;2022-08-05T09:29:20;0.40;;;0.40;;
21260;SDS011;10788;47.930;9.766;2022-08-05T09:32:02;0.40;;;0.40;;
21260;SDS011;10788;47.930;9.766;2022-08-05T09:34:44;0.40;;;0.40;;
21260;SDS011;10788;47.930;9.766;2022-08-05T09:37:21;0.40;;;0.40;;
21260;SDS011;10788;47.930;9.766;2022-08-05T09:39:48;0.40;;;0.40;;
21260;SDS011;10788;47.930;9.766;2022-08-05T09:42:18;0.40;;;0.40;;
21260;SDS011;10788;47.930;9.766;2022-08-05T09:44:47;0.40;;;0.40;;
21260;SDS011;10788;47.930;9.766;2022-08-05T09:49:47;0.30;;;0.30;;
21260;SDS011;10788;47.930;9.766;2022-08-05T10:05:09;0.40;;;0.40;;
21260;SDS011;10788;47.930;9.766;2022-08-05T10:07:54;0.30;;;0.30;;
21260;SDS011;10788;47.930;9.766;2022-08-05T10:10:26;0.50;;;0.50;;
21260;SDS011;10788;47.930;9.766;2022-08-05T10:12:57;0.40;;;0.40;;
21260;SDS011;10788;47.930;9.766;2022-08-05T10:15:30;0.40;;;0.40;;
21260;SDS011;10788;47.930;9.766;2022-08-05T10:20:43;0.50;;;0.50;;
21260;SDS011;10788;47.930;9.766;2022-08-05T10:23:10;0.50;;;0.50;;
21260;SDS011;10788;47.930;9.766;2022-08-05T10:25:36;0.40;;;0.40;;
21260;SDS011;10788;47.930;9.766;2022-08-05T10:28:02;0.40;;;0.40;;
21260;SDS011;10788;47.930;9.766;2022-08-05T10:30:29;0.40;;;0.40;;
21260;SDS011;10788;47.930;9.766;2022-08-05T10:32:56;0.30;;;0.30;;
21260;SDS011;10788;47.930;9.766;2022-08-05T10:35:23;0.40;;;0.40;;
21260;SDS011;10788;47.930;9.766;2022-08-05T10:37:49;0.50;;;0.50;;
21260;SDS011;10788;47.930;9.766;2022-08-05T10:40:30;0.60;;;0.60;;
21260;SDS011;10788;47.930;9.766;2022-08-05T10:46:13;0.50;;;0.50;;
21260;SDS011;10788;47.930;9.766;2022-08-05T10:48:44;0.47;;;0.47;;
21260;SDS011;10788;47.930;9.766;2022-08-05T10:51:14;0.40;;;0.40;;
21260;SDS011;10788;47.930;9.766;2022-08-05T11:12:58;0.60;;;0.60;;
21260;SDS011;10788;47.930;9.766;2022-08-05T11:17:48;0.50;;;0.50;;
21260;SDS011;10788;47.930;9.766;2022-08-05T11:26:02;0.70;;;0.70;;
21260;SDS011;10788;47.930;9.766;2022-08-05T11:36:01;0.70;;;0.70;;
21260;SDS011;10788;47.930;9.766;2022-08-05T11:48:59;0.60;;;0.60;;
21260;SDS011;10788;47.930;9.766;2022-08-05T11:51:26;0.50;;;0.50;;
21260;SDS011;10788;47.930;9.766;2022-08-05T11:53:53;0.77;;;0.77;;
21260;SDS011;10788;47.930;9.766;2022-08-05T11:56:19;0.70;;;0.70;;
21260;SDS011;10788;47.930;9.766;2022-08-05T11:58:46;0.60;;;0.60;;
21260;SDS011;10788;47.930;9.766;2022-08-05T12:01:16;0.67;;;0.67;;
21260;SDS011;10788;47.930;9.766;2022-08-05T12:06:09;0.83;;;0.83;;
21260;SDS011;10788;47.930;9.766;2022-08-05T12:11:07;0.70;;;0.70;;
21260;SDS011;10788;47.930;9.766;2022-08-05T12:13:33;0.70;;;0.70;;
21260;SDS011;10788;47.930;9.766;2022-08-05T12:15:59;0.43;;;0.43;;
21260;SDS011;10788;47.930;9.766;2022-08-05T12:18:32;0.60;;;0.60;;
21260;SDS011;10788;47.930;9.766;2022-08-05T12:21:11;0.50;;;0.50;;
21260;SDS011;10788;47.930;9.766;2022-08-05T12:23:38;0.50;;;0.50;;
21260;SDS011;10788;47.930;9.766;2022-08-05T12:26:04;0.50;;;0.50;;
21260;SDS011;10788;47.930;9.766;2022-08-05T12:28:34;0.60;;;0.60;;
21260;SDS011;10788;47.930;9.766;2022-08-05T12:31:01;0.50;;;0.50;;
21260;SDS011;10788;47.930;9.766;2022-08-05T12:33:27;0.60;;;0.60;;
21260;SDS011;10788;47.930;9.766;2022-08-05T12:35:54;0.63;;;0.63;;
21260;SDS011;10788;47.930;9.766;2022-08-05T12:38:21;0.70;;;0.70;;
21260;SDS011;10788;47.930;9.766;2022-08-05T12:40:47;0.70;;;0.70;;
21260;SDS011;10788;47.930;9.766;2022-08-05T12:43:13;0.50;;;0.50;;
21260;SDS011;10788;47.930;9.766;2022-08-05T12:45:52;0.50;;;0.50;;
21260;SDS011;10788;47.930;9.766;2022-08-05T12:48:19;0.60;;;0.60;;
21260;SDS011;10788;47.930;9.766;2022-08-05T12:53:39;0.50;;;0.50;;
21260;SDS011;10788;47.930;9.766;2022-08-05T12:56:22;0.50;;;0.50;;
21260;SDS011;10788;47.930;9.766;2022-08-05T13:01:41;0.60;;;0.60;;
21260;SDS011;10788;47.930;9.766;2022-08-05T13:04:08;0.70;;;0.70;;
21260;SDS011;10788;47.930;9.766;2022-08-05T13:06:38;0.60;;;0.60;;
21260;SDS011;10788;47.930;9.766;2022-08-05T13:09:06;0.70;;;0.70;;
21260;SDS011;10788;47.930;9.766;2022-08-05T13:11:36;0.50;;;0.50;;
21260;SDS011;10788;47.930;9.766;2022-08-05T13:14:24;0.80;;;0.80;;
21260;SDS011;10788;47.930;9.766;2022-08-05T13:16:51;0.63;;;0.63;;
21260;SDS011;10788;47.930;9.766;2022-08-05T13:19:20;0.50;;;0.50;;
21260;SDS011;10788;47.930;9.766;2022-08-05T13:21:47;0.50;;;0.50;;
21260;SDS011;10788;47.930;9.766;2022-08-05T13:24:13;0.60;;;0.60;;
21260;SDS011;10788;47.930;9.766;2022-08-05T13:26:39;0.70;;;0.70;;
21260;SDS011;10788;47.930;9.766;2022-08-05T13:29:04;0.50;;;0.50;;
21260;SDS011;10788;47.930;9.766;2022-08-05T13:31:30;0.80;;;0.80;;
21260;SDS011;10788;47.930;9.766;2022-08-05T13:33:56;0.60;;;0.60;;
21260;SDS011;10788;47.930;9.766;2022-08-05T13:36:22;0.70;;;0.70;;
21260;SDS011;10788;47.930;9.766;2022-08-05T13:38:48;0.70;;;0.70;;
21260;SDS011;10788;47.930;9.766;2022-08-05T13:41:13;0.73;;;0.73;;
21260;SDS011;10788;47.930;9.766;2022-08-05T13:43:40;0.73;;;0.73;;
21260;SDS011;10788;47.930;9.766;2022-08-05T13:46:08;0.70;;;0.70;;
21260;SDS011;10788;47.930;9.766;2022-08-05T13:48:35;0.50;;;0.50;;
21260;SDS011;10788;47.930;9.766;2022-08-05T13:51:08;0.63;;;0.63;;
21260;SDS011;10788;47.930;9.766;2022-08-05T13:53:34;0.67;;;0.67;;
21260;SDS011;10788;47.930;9.766;2022-08-05T13:56:00;0.50;;;0.50;;
21260;SDS011;10788;47.930;9.766;2022-08-05T13:58:27;0.70;;;0.70;;
21260;SDS011;10788;47.930;9.766;2022-08-05T14:00:53;0.50;;;0.50;;
21260;SDS011;10788;47.930;9.766;2022-08-05T14:03:18;0.50;;;0.50;;
21260;SDS011;10788;47.930;9.766;2022-08-05T14:05:44;0.50;;;0.50;;
21260;SDS011;10788;47.930;9.766;2022-08-05T14:08:10;0.40;;;0.40;;
21260;SDS011;10788;47.930;9.766;2022-08-05T14:10:36;0.60;;;0.60;;
21260;SDS011;10788;47.930;9.766;2022-08-05T14:13:03;0.80;;;0.80;;
21260;SDS011;10788;47.930;9.766;2022-08-05T14:15:32;0.70;;;0.70;;
21260;SDS011;10788;47.930;9.766;2022-08-05T14:17:59;0.60;;;0.60;;
21260;SDS011;10788;47.930;9.766;2022-08-05T14:20:25;0.50;;;0.50;;
21260;SDS011;10788;47.930;9.766;2022-08-05T14:22:52;0.60;;;0.60;;
21260;SDS011;10788;47.930;9.766;2022-08-05T14:25:18;0.70;;;0.70;;
21260;SDS011;10788;47.930;9.766;2022-08-05T14:27:45;0.60;;;0.60;;
21260;SDS011;10788;47.930;9.766;2022-08-05T14:30:13;0.60;;;0.60;;
21260;SDS011;10788;47.930;9.766;2022-08-05T14:32:39;0.60;;;0.60;;
21260;SDS011;10788;47.930;9.766;2022-08-05T14:35:05;0.63;;;0.63;;
21260;SDS011;10788;47.930;9.766;2022-08-05T14:37:31;0.60;;;0.60;;
21260;SDS011;10788;47.930;9.766;2022-08-05T14:39:57;1.00;;;0.90;;
21260;SDS011;10788;47.930;9.766;2022-08-05T14:42:22;0.70;;;0.70;;
21260;SDS011;10788;47.930;9.766;2022-08-05T14:44:48;0.60;;;0.60;;
21260;SDS011;10788;47.930;9.766;2022-08-05T14:47:14;0.73;;;0.73;;
21260;SDS011;10788;47.930;9.766;2022-08-05T14:49:39;0.80;;;0.80;;
21260;SDS011;10788;47.930;9.766;2022-08-05T14:52:06;0.60;;;0.60;;
21260;SDS011;10788;47.930;9.766;2022-08-05T14:54:32;0.77;;;0.77;;
21260;SDS011;10788;47.930;9.766;2022-08-05T14:56:58;0.70;;;0.70;;
21260;SDS011;10788;47.930;9.766;2022-08-05T14:59:24;0.60;;;0.60;;
21260;SDS011;10788;47.930;9.766;2022-08-05T15:01:50;0.70;;;0.70;;
21260;SDS011;10788;47.930;9.766;2022-08-05T15:04:17;0.70;;;0.70;;
21260;SDS011;10788;47.930;9.766;2022-08-05T15:06:43;0.93;;;0.90;;
21260;SDS011;10788;47.930;9.766;2022-08-05T15:09:09;0.80;;;0.80;;
21260;SDS011;10788;47.930;9.766;2022-08-05T15:11:35;0.77;;;0.77;;
21260;SDS011;10788;47.930;9.766;2022-08-05T15:14:01;0.60;;;0.60;;
21260;SDS011;10788;47.930;9.766;2022-08-05T15:16:28;0.70;;;0.70;;
21260;SDS011;10788;47.930;9.766;2022-08-05T15:18:54;0.63;;;0.63;;
21260;SDS011;10788;47.930;9.766;2022-08-05T15:21:19;0.90;;;0.90;;
21260;SDS011;10788;47.930;9.766;2022-08-05T15:23:45;0.50;;;0.50;;
21260;SDS011;10788;47.930;9.766;2022-08-05T15:26:11;0.63;;;0.63;;
21260;SDS011;10788;47.930;9.766;2022-08-05T15:28:37;0.57;;;0.57;;
21260;SDS011;10788;47.930;9.766;2022-08-05T15:31:02;1.10;;;1.00;;
21260;SDS011;10788;47.930;9.766;2022-08-05T15:33:28;0.60;;;0.60;;
21260;SDS011;10788;47.930;9.766;2022-08-05T15:35:54;0.90;;;0.90;;
21260;SDS011;10788;47.930;9.766;2022-08-05T15:38:19;0.77;;;0.77;;
21260;SDS011;10788;47.930;9.766;2022-08-05T15:40:45;1.07;;;0.97;;
21260;SDS011;10788;47.930;9.766;2022-08-05T15:43:11;0.80;;;0.80;;
21260;SDS011;10788;47.930;9.766;2022-08-05T15:45:36;0.80;;;0.80;;
21260;SDS011;10788;47.930;9.766;2022-08-05T15:48:02;0.80;;;0.80;;
21260;SDS011;10788;47.930;9.766;2022-08-05T15:50:28;0.80;;;0.80;;
21260;SDS011;10788;47.930;9.766;2022-08-05T15:52:54;0.70;;;0.70;;
21260;SDS011;10788;47.930;9.766;2022-08-05T15:55:19;0.90;;;0.90;;
21260;SDS011;10788;47.930;9.766;2022-08-05T15:57:46;0.97;;;0.90;;
21260;SDS011;10788;47.930;9.766;2022-08-05T16:00:11;0.80;;;0.80;;
21260;SDS011;10788;47.930;9.766;2022-08-05T16:02:37;0.80;;;0.80;;
21260;SDS011;10788;47.930;9.766;2022-08-05T16:05:03;0.60;;;0.60;;
21260;SDS011;10788;47.930;9.766;2022-08-05T16:07:29;0.80;;;0.80;;
21260;SDS011;10788;47.930;9.766;2022-08-05T16:09:55;0.70;;;0.70;;
21260;SDS011;10788;47.930;9.766;2022-08-05T16:12:21;0.80;;;0.80;;
21260;SDS011;10788;47.930;9.766;2022-08-05T16:14:46;0.93;;;0.90;;
21260;SDS011;10788;47.930;9.766;2022-08-05T16:17:12;0.60;;;0.60;;